sensor_id;sensor_type;location;lat;lon;timestamp;temperature;humidity
21184;DHT22;18176;49.502;11.754;2024-03-25T00:01:23;4.10;99.90
21184;DHT22;18176;49.502;11.754;2024-03-25T00:05:40;4.00;99.90
21184;DHT22;18176;49.502;11.754;2024-03-25T00:09:57;4.10;99.90
21184;DHT22;18176;49.502;11.754;2024-03-25T00:14:17;4.10;99.90
21184;DHT22;18176;49.502;11.754;2024-03-25T00:18:33;4.20;99.90
21184;DHT22;18176;49.502;11.754;2024-03-25T00:22:50;4.20;99.90
21184;DHT22;18176;49.502;11.754;2024-03-25T00:27:07;4.30;99.90
21184;DHT22;18176;49.502;11.754;2024-03-25T00:31:26;4.30;99.90
21184;DHT22;18176;49.502;11.754;2024-03-25T00:35:43;4.30;99.90
21184;DHT22;18176;49.502;11.754;2024-03-25T00:40:01;4.20;99.90
21184;DHT22;18176;49.502;11.754;2024-03-25T00:44:20;4.20;99.90
21184;DHT22;18176;49.502;11.754;2024-03-25T00:48:39;4.20;99.90
21184;DHT22;18176;49.502;11.754;2024-03-25T00:52:56;4.20;99.90
21184;DHT22;18176;49.502;11.754;2024-03-25T00:57:13;4.20;99.90
21184;DHT22;18176;49.502;11.754;2024-03-25T01:01:30;4.10;99.90
21184;DHT22;18176;49.502;11.754;2024-03-25T01:05:50;4.10;99.90
21184;DHT22;18176;49.502;11.754;2024-03-25T01:10:07;4.10;99.90
21184;DHT22;18176;49.502;11.754;2024-03-25T01:14:24;4.20;99.90
21184;DHT22;18176;49.502;11.754;2024-03-25T01:18:41;4.20;99.90
21184;DHT22;18176;49.502;11.754;2024-03-25T01:23:00;4.20;99.90
21184;DHT22;18176;49.502;11.754;2024-03-25T01:27:17;4.20;99.90
21184;DHT22;18176;49.502;11.754;2024-03-25T01:31:34;4.20;99.90
21184;DHT22;18176;49.502;11.754;2024-03-25T01:35:51;4.20;99.90
21184;DHT22;18176;49.502;11.754;2024-03-25T01:40:11;4.20;99.90
21184;DHT22;18176;49.502;11.754;2024-03-25T01:44:28;4.20;99.90
21184;DHT22;18176;49.502;11.754;2024-03-25T01:48:45;4.20;99.90
21184;DHT22;18176;49.502;11.754;2024-03-25T01:53:03;4.20;99.90
21184;DHT22;18176;49.502;11.754;2024-03-25T01:57:23;4.20;99.90
21184;DHT22;18176;49.502;11.754;2024-03-25T02:01:41;4.30;99.90
21184;DHT22;18176;49.502;11.754;2024-03-25T02:06:02;4.30;99.90
21184;DHT22;18176;49.502;11.754;2024-03-25T02:10:23;4.20;99.90
21184;DHT22;18176;49.502;11.754;2024-03-25T02:14:43;4.20;99.90
21184;DHT22;18176;49.502;11.754;2024-03-25T02:19:00;4.20;99.90
21184;DHT22;18176;49.502;11.754;2024-03-25T02:23:17;4.20;99.90
21184;DHT22;18176;49.502;11.754;2024-03-25T02:27:38;4.20;99.90
21184;DHT22;18176;49.502;11.754;2024-03-25T02:31:55;4.20;99.90
21184;DHT22;18176;49.502;11.754;2024-03-25T02:36:12;4.20;99.90
21184;DHT22;18176;49.502;11.754;2024-03-25T02:40:29;4.20;99.90
21184;DHT22;18176;49.502;11.754;2024-03-25T02:44:49;4.20;99.90
21184;DHT22;18176;49.502;11.754;2024-03-25T02:49:06;4.20;99.90
21184;DHT22;18176;49.502;11.754;2024-03-25T02:53:23;4.30;99.90
21184;DHT22;18176;49.502;11.754;2024-03-25T02:57:40;4.30;99.90
21184;DHT22;18176;49.502;11.754;2024-03-25T03:01:59;4.20;99.90
21184;DHT22;18176;49.502;11.754;2024-03-25T03:06:16;4.20;99.90
21184;DHT22;18176;49.502;11.754;2024-03-25T03:10:33;4.10;99.90
21184;DHT22;18176;49.502;11.754;2024-03-25T03:14:50;4.10;99.90
21184;DHT22;18176;49.502;11.754;2024-03-25T03:19:09;4.10;99.90
21184;DHT22;18176;49.502;11.754;2024-03-25T03:23:26;4.20;99.90
21184;DHT22;18176;49.502;11.754;2024-03-25T03:27:43;4.20;99.90
21184;DHT22;18176;49.502;11.754;2024-03-25T03:31:59;4.30;99.90
21184;DHT22;18176;49.502;11.754;2024-03-25T03:36:21;4.30;99.90
21184;DHT22;18176;49.502;11.754;2024-03-25T03:40:39;4.30;99.90
21184;DHT22;18176;49.502;11.754;2024-03-25T03:44:56;4.30;99.90
21184;DHT22;18176;49.502;11.754;2024-03-25T03:49:12;4.30;99.90
21184;DHT22;18176;49.502;11.754;2024-03-25T03:53:32;4.30;99.90
21184;DHT22;18176;49.502;11.754;2024-03-25T03:57:49;4.20;99.90
21184;DHT22;18176;49.502;11.754;2024-03-25T04:02:07;4.20;99.90
21184;DHT22;18176;49.502;11.754;2024-03-25T04:06:24;4.20;99.90
21184;DHT22;18176;49.502;11.754;2024-03-25T04:10:45;4.20;99.90
21184;DHT22;18176;49.502;11.754;2024-03-25T04:15:02;4.20;99.90
21184;DHT22;18176;49.502;11.754;2024-03-25T04:19:23;4.20;99.90
21184;DHT22;18176;49.502;11.754;2024-03-25T04:23:40;4.20;99.90
21184;DHT22;18176;49.502;11.754;2024-03-25T04:27:59;4.20;99.90
21184;DHT22;18176;49.502;11.754;2024-03-25T04:32:17;4.30;99.90
21184;DHT22;18176;49.502;11.754;2024-03-25T04:36:33;4.20;99.90
21184;DHT22;18176;49.502;11.754;2024-03-25T04:40:50;4.30;99.90
21184;DHT22;18176;49.502;11.754;2024-03-25T04:45:10;4.30;99.90
21184;DHT22;18176;49.502;11.754;2024-03-25T04:49:28;4.20;99.90
21184;DHT22;18176;49.502;11.754;2024-03-25T04:53:44;4.20;99.90
21184;DHT22;18176;49.502;11.754;2024-03-25T04:58:01;4.20;99.90
21184;DHT22;18176;49.502;11.754;2024-03-25T05:02:21;4.20;99.90
21184;DHT22;18176;49.502;11.754;2024-03-25T05:06:38;4.20;99.90
21184;DHT22;18176;49.502;11.754;2024-03-25T05:10:55;4.20;99.90
21184;DHT22;18176;49.502;11.754;2024-03-25T05:15:12;4.20;99.90
21184;DHT22;18176;49.502;11.754;2024-03-25T05:19:31;4.30;99.90
21184;DHT22;18176;49.502;11.754;2024-03-25T05:23:48;4.20;99.90
21184;DHT22;18176;49.502;11.754;2024-03-25T05:28:05;4.30;99.90
21184;DHT22;18176;49.502;11.754;2024-03-25T05:32:22;4.30;99.90
21184;DHT22;18176;49.502;11.754;2024-03-25T05:36:41;4.30;99.90
21184;DHT22;18176;49.502;11.754;2024-03-25T05:40:58;4.30;99.90
21184;DHT22;18176;49.502;11.754;2024-03-25T05:45:15;4.20;99.90
21184;DHT22;18176;49.502;11.754;2024-03-25T05:49:32;4.20;99.90
21184;DHT22;18176;49.502;11.754;2024-03-25T05:53:52;4.30;99.90
21184;DHT22;18176;49.502;11.754;2024-03-25T05:58:09;4.20;99.90
21184;DHT22;18176;49.502;11.754;2024-03-25T06:02:26;4.20;99.90
21184;DHT22;18176;49.502;11.754;2024-03-25T06:06:42;4.20;99.90
21184;DHT22;18176;49.502;11.754;2024-03-25T06:11:05;4.30;99.90
21184;DHT22;18176;49.502;11.754;2024-03-25T06:15:22;4.30;99.90
21184;DHT22;18176;49.502;11.754;2024-03-25T06:19:38;4.30;99.90
21184;DHT22;18176;49.502;11.754;2024-03-25T06:23:55;4.30;99.90
21184;DHT22;18176;49.502;11.754;2024-03-25T06:28:15;4.40;99.90
21184;DHT22;18176;49.502;11.754;2024-03-25T06:32:32;4.30;99.90
21184;DHT22;18176;49.502;11.754;2024-03-25T06:37:04;4.50;99.90
21184;DHT22;18176;49.502;11.754;2024-03-25T06:41:20;4.60;99.90
21184;DHT22;18176;49.502;11.754;2024-03-25T06:45:40;4.60;99.90
21184;DHT22;18176;49.502;11.754;2024-03-25T06:49:57;4.60;99.90
21184;DHT22;18176;49.502;11.754;2024-03-25T06:54:14;4.60;99.90
21184;DHT22;18176;49.502;11.754;2024-03-25T06:58:31;4.60;99.90
21184;DHT22;18176;49.502;11.754;2024-03-25T07:02:50;4.70;99.90
21184;DHT22;18176;49.502;11.754;2024-03-25T07:07:07;4.80;99.90
21184;DHT22;18176;49.502;11.754;2024-03-25T07:11:24;4.90;99.90
21184;DHT22;18176;49.502;11.754;2024-03-25T07:15:42;5.20;99.90
21184;DHT22;18176;49.502;11.754;2024-03-25T07:20:03;5.10;99.90
21184;DHT22;18176;49.502;11.754;2024-03-25T07:24:21;5.30;99.90
21184;DHT22;18176;49.502;11.754;2024-03-25T07:28:38;5.50;99.90
21184;DHT22;18176;49.502;11.754;2024-03-25T07:32:55;5.60;99.90
21184;DHT22;18176;49.502;11.754;2024-03-25T07:37:14;5.60;99.90
21184;DHT22;18176;49.502;11.754;2024-03-25T07:41:31;5.80;99.90
21184;DHT22;18176;49.502;11.754;2024-03-25T07:45:48;6.00;99.90
21184;DHT22;18176;49.502;11.754;2024-03-25T07:50:06;6.10;99.90
21184;DHT22;18176;49.502;11.754;2024-03-25T07:54:27;6.10;99.90
21184;DHT22;18176;49.502;11.754;2024-03-25T07:58:44;5.80;99.90
21184;DHT22;18176;49.502;11.754;2024-03-25T08:03:04;5.60;99.90
21184;DHT22;18176;49.502;11.754;2024-03-25T08:07:21;5.30;99.90
21184;DHT22;18176;49.502;11.754;2024-03-25T08:11:42;5.30;99.90
21184;DHT22;18176;49.502;11.754;2024-03-25T08:16:00;5.70;99.90
21184;DHT22;18176;49.502;11.754;2024-03-25T08:20:16;5.90;99.90
21184;DHT22;18176;49.502;11.754;2024-03-25T08:24:33;5.90;99.90
21184;DHT22;18176;49.502;11.754;2024-03-25T08:28:53;6.10;99.90
21184;DHT22;18176;49.502;11.754;2024-03-25T08:33:10;6.60;99.90
21184;DHT22;18176;49.502;11.754;2024-03-25T08:37:26;7.00;99.90
21184;DHT22;18176;49.502;11.754;2024-03-25T08:41:43;6.70;99.90
21184;DHT22;18176;49.502;11.754;2024-03-25T08:46:03;6.80;99.90
21184;DHT22;18176;49.502;11.754;2024-03-25T08:50:20;7.00;99.90
21184;DHT22;18176;49.502;11.754;2024-03-25T08:54:37;7.20;99.90
21184;DHT22;18176;49.502;11.754;2024-03-25T08:58:54;7.10;99.90
21184;DHT22;18176;49.502;11.754;2024-03-25T09:03:13;7.20;99.90
21184;DHT22;18176;49.502;11.754;2024-03-25T09:07:30;7.30;99.90
21184;DHT22;18176;49.502;11.754;2024-03-25T09:11:47;7.70;99.90
21184;DHT22;18176;49.502;11.754;2024-03-25T09:16:04;7.50;99.90
21184;DHT22;18176;49.502;11.754;2024-03-25T09:20:24;7.50;99.90
21184;DHT22;18176;49.502;11.754;2024-03-25T09:24:41;7.40;99.90
21184;DHT22;18176;49.502;11.754;2024-03-25T09:28:58;7.50;99.90
21184;DHT22;18176;49.502;11.754;2024-03-25T09:33:15;7.50;99.90
21184;DHT22;18176;49.502;11.754;2024-03-25T09:37:34;7.80;99.90
21184;DHT22;18176;49.502;11.754;2024-03-25T09:41:54;8.80;99.90
21184;DHT22;18176;49.502;11.754;2024-03-25T09:46:14;9.40;99.90
21184;DHT22;18176;49.502;11.754;2024-03-25T09:50:31;8.80;99.90
21184;DHT22;18176;49.502;11.754;2024-03-25T09:54:51;8.30;99.90
21184;DHT22;18176;49.502;11.754;2024-03-25T09:59:08;8.10;99.90
21184;DHT22;18176;49.502;11.754;2024-03-25T10:03:24;7.90;99.90
21184;DHT22;18176;49.502;11.754;2024-03-25T10:07:41;8.00;99.90
21184;DHT22;18176;49.502;11.754;2024-03-25T10:12:01;8.40;99.90
21184;DHT22;18176;49.502;11.754;2024-03-25T10:16:18;8.60;99.90
21184;DHT22;18176;49.502;11.754;2024-03-25T10:20:35;8.80;99.90
21184;DHT22;18176;49.502;11.754;2024-03-25T10:24:51;9.40;99.90
21184;DHT22;18176;49.502;11.754;2024-03-25T10:29:11;9.70;99.90
21184;DHT22;18176;49.502;11.754;2024-03-25T10:33:28;9.70;99.90
21184;DHT22;18176;49.502;11.754;2024-03-25T10:37:45;9.40;99.90
21184;DHT22;18176;49.502;11.754;2024-03-25T10:42:02;9.40;99.90
21184;DHT22;18176;49.502;11.754;2024-03-25T10:46:24;9.50;99.90
21184;DHT22;18176;49.502;11.754;2024-03-25T10:50:43;10.60;99.90
21184;DHT22;18176;49.502;11.754;2024-03-25T10:55:00;11.50;99.90
21184;DHT22;18176;49.502;11.754;2024-03-25T10:59:18;11.70;99.90
21184;DHT22;18176;49.502;11.754;2024-03-25T11:03:41;12.50;99.90
21184;DHT22;18176;49.502;11.754;2024-03-25T11:07:58;14.20;97.10
21184;DHT22;18176;49.502;11.754;2024-03-25T11:12:32;14.90;95.20
21184;DHT22;18176;49.502;11.754;2024-03-25T11:16:54;14.10;94.50
21184;DHT22;18176;49.502;11.754;2024-03-25T11:21:14;13.50;95.60
21184;DHT22;18176;49.502;11.754;2024-03-25T11:25:41;13.50;93.90
21184;DHT22;18176;49.502;11.754;2024-03-25T11:29:58;12.70;94.10
21184;DHT22;18176;49.502;11.754;2024-03-25T11:34:15;11.30;94.10
21184;DHT22;18176;49.502;11.754;2024-03-25T11:38:35;12.20;95.80
21184;DHT22;18176;49.502;11.754;2024-03-25T11:42:52;13.20;91.80
21184;DHT22;18176;49.502;11.754;2024-03-25T11:47:10;15.10;90.30
21184;DHT22;18176;49.502;11.754;2024-03-25T11:51:27;16.90;84.30
21184;DHT22;18176;49.502;11.754;2024-03-25T11:55:48;17.00;78.90
21184;DHT22;18176;49.502;11.754;2024-03-25T12:00:08;17.80;76.40
21184;DHT22;18176;49.502;11.754;2024-03-25T12:04:32;17.70;77.30
21184;DHT22;18176;49.502;11.754;2024-03-25T12:08:49;15.90;72.40
21184;DHT22;18176;49.502;11.754;2024-03-25T12:13:24;14.60;77.20
21184;DHT22;18176;49.502;11.754;2024-03-25T12:17:42;14.10;77.60
21184;DHT22;18176;49.502;11.754;2024-03-25T12:22:00;13.90;81.90
21184;DHT22;18176;49.502;11.754;2024-03-25T12:26:17;13.10;82.00
21184;DHT22;18176;49.502;11.754;2024-03-25T12:30:48;12.20;82.90
21184;DHT22;18176;49.502;11.754;2024-03-25T12:35:08;13.10;82.40
21184;DHT22;18176;49.502;11.754;2024-03-25T12:39:26;15.30;78.30
21184;DHT22;18176;49.502;11.754;2024-03-25T12:43:44;15.10;76.40
21184;DHT22;18176;49.502;11.754;2024-03-25T12:48:04;16.60;74.90
21184;DHT22;18176;49.502;11.754;2024-03-25T12:52:22;17.90;68.90
21184;DHT22;18176;49.502;11.754;2024-03-25T12:56:38;19.00;64.00
21184;DHT22;18176;49.502;11.754;2024-03-25T13:00:55;18.50;66.80
21184;DHT22;18176;49.502;11.754;2024-03-25T13:05:15;17.10;69.50
21184;DHT22;18176;49.502;11.754;2024-03-25T13:09:32;15.70;72.20
21184;DHT22;18176;49.502;11.754;2024-03-25T13:13:49;15.60;74.70
21184;DHT22;18176;49.502;11.754;2024-03-25T13:18:06;17.10;72.40
21184;DHT22;18176;49.502;11.754;2024-03-25T13:22:26;17.50;68.50
21184;DHT22;18176;49.502;11.754;2024-03-25T13:26:43;19.30;65.80
21184;DHT22;18176;49.502;11.754;2024-03-25T13:30:59;20.40;61.60
21184;DHT22;18176;49.502;11.754;2024-03-25T13:35:16;19.10;63.30
21184;DHT22;18176;49.502;11.754;2024-03-25T13:39:36;18.10;64.20
21184;DHT22;18176;49.502;11.754;2024-03-25T13:43:53;17.80;64.80
21184;DHT22;18176;49.502;11.754;2024-03-25T13:48:10;17.40;67.00
21184;DHT22;18176;49.502;11.754;2024-03-25T13:52:26;18.30;63.50
21184;DHT22;18176;49.502;11.754;2024-03-25T13:56:46;17.70;63.00
21184;DHT22;18176;49.502;11.754;2024-03-25T14:01:03;17.20;63.80
21184;DHT22;18176;49.502;11.754;2024-03-25T14:05:20;16.70;62.90
21184;DHT22;18176;49.502;11.754;2024-03-25T14:09:37;16.80;65.40
21184;DHT22;18176;49.502;11.754;2024-03-25T14:13:56;18.00;60.00
21184;DHT22;18176;49.502;11.754;2024-03-25T14:18:13;18.90;63.30
21184;DHT22;18176;49.502;11.754;2024-03-25T14:22:30;19.90;58.80
21184;DHT22;18176;49.502;11.754;2024-03-25T14:26:47;20.00;57.50
21184;DHT22;18176;49.502;11.754;2024-03-25T14:31:07;19.70;56.40
21184;DHT22;18176;49.502;11.754;2024-03-25T14:35:24;19.40;56.20
21184;DHT22;18176;49.502;11.754;2024-03-25T14:39:41;18.10;58.30
21184;DHT22;18176;49.502;11.754;2024-03-25T14:43:58;17.70;59.00
21184;DHT22;18176;49.502;11.754;2024-03-25T14:48:18;17.40;59.00
21184;DHT22;18176;49.502;11.754;2024-03-25T14:52:35;15.40;64.40
21184;DHT22;18176;49.502;11.754;2024-03-25T14:56:52;14.50;65.50
21184;DHT22;18176;49.502;11.754;2024-03-25T15:01:09;14.00;67.20
21184;DHT22;18176;49.502;11.754;2024-03-25T15:05:28;13.70;66.60
21184;DHT22;18176;49.502;11.754;2024-03-25T15:09:45;13.60;68.00
21184;DHT22;18176;49.502;11.754;2024-03-25T15:14:02;14.70;69.50
21184;DHT22;18176;49.502;11.754;2024-03-25T15:18:19;15.90;64.40
21184;DHT22;18176;49.502;11.754;2024-03-25T15:22:38;16.90;60.80
21184;DHT22;18176;49.502;11.754;2024-03-25T15:26:55;17.90;58.70
21184;DHT22;18176;49.502;11.754;2024-03-25T15:31:12;17.40;58.60
21184;DHT22;18176;49.502;11.754;2024-03-25T15:35:29;17.10;58.80
21184;DHT22;18176;49.502;11.754;2024-03-25T15:39:48;16.50;59.20
21184;DHT22;18176;49.502;11.754;2024-03-25T15:44:06;16.00;60.10
21184;DHT22;18176;49.502;11.754;2024-03-25T15:48:22;15.20;62.20
21184;DHT22;18176;49.502;11.754;2024-03-25T15:52:40;14.90;62.40
21184;DHT22;18176;49.502;11.754;2024-03-25T15:56:59;15.10;61.70
21184;DHT22;18176;49.502;11.754;2024-03-25T16:01:16;15.20;62.30
21184;DHT22;18176;49.502;11.754;2024-03-25T16:05:33;14.80;61.90
21184;DHT22;18176;49.502;11.754;2024-03-25T16:09:50;15.00;63.30
21184;DHT22;18176;49.502;11.754;2024-03-25T16:14:09;14.40;64.10
21184;DHT22;18176;49.502;11.754;2024-03-25T16:18:26;14.10;64.70
21184;DHT22;18176;49.502;11.754;2024-03-25T16:22:43;13.90;63.90
21184;DHT22;18176;49.502;11.754;2024-03-25T16:27:03;13.70;64.90
21184;DHT22;18176;49.502;11.754;2024-03-25T16:31:23;13.60;66.20
21184;DHT22;18176;49.502;11.754;2024-03-25T16:35:40;13.60;66.20
21184;DHT22;18176;49.502;11.754;2024-03-25T16:39:57;13.40;67.50
21184;DHT22;18176;49.502;11.754;2024-03-25T16:44:14;12.80;68.00
21184;DHT22;18176;49.502;11.754;2024-03-25T16:48:33;12.60;68.10
21184;DHT22;18176;49.502;11.754;2024-03-25T16:52:50;12.60;68.60
21184;DHT22;18176;49.502;11.754;2024-03-25T16:57:07;12.60;69.10
21184;DHT22;18176;49.502;11.754;2024-03-25T17:01:24;12.50;69.60
21184;DHT22;18176;49.502;11.754;2024-03-25T17:05:43;12.50;70.50
21184;DHT22;18176;49.502;11.754;2024-03-25T17:10:00;12.30;72.10
21184;DHT22;18176;49.502;11.754;2024-03-25T17:14:17;12.10;72.60
21184;DHT22;18176;49.502;11.754;2024-03-25T17:18:33;11.90;73.50
21184;DHT22;18176;49.502;11.754;2024-03-25T17:22:53;11.30;76.90
21184;DHT22;18176;49.502;11.754;2024-03-25T17:27:10;10.90;80.50
21184;DHT22;18176;49.502;11.754;2024-03-25T17:31:27;10.50;80.50
21184;DHT22;18176;49.502;11.754;2024-03-25T17:35:43;10.10;83.10
21184;DHT22;18176;49.502;11.754;2024-03-25T17:40:04;9.70;85.50
21184;DHT22;18176;49.502;11.754;2024-03-25T17:44:22;9.30;88.20
21184;DHT22;18176;49.502;11.754;2024-03-25T17:48:39;8.80;90.70
21184;DHT22;18176;49.502;11.754;2024-03-25T17:52:56;8.40;91.80
21184;DHT22;18176;49.502;11.754;2024-03-25T17:57:15;8.10;92.00
21184;DHT22;18176;49.502;11.754;2024-03-25T18:01:32;7.80;92.70
21184;DHT22;18176;49.502;11.754;2024-03-25T18:05:49;7.50;94.90
21184;DHT22;18176;49.502;11.754;2024-03-25T18:10:07;7.30;95.70
21184;DHT22;18176;49.502;11.754;2024-03-25T18:14:27;7.10;96.60
21184;DHT22;18176;49.502;11.754;2024-03-25T18:18:44;6.80;97.80
21184;DHT22;18176;49.502;11.754;2024-03-25T18:23:01;6.70;98.50
21184;DHT22;18176;49.502;11.754;2024-03-25T18:27:18;6.50;99.90
21184;DHT22;18176;49.502;11.754;2024-03-25T18:31:37;6.70;99.90
21184;DHT22;18176;49.502;11.754;2024-03-25T18:35:59;6.20;99.90
21184;DHT22;18176;49.502;11.754;2024-03-25T18:40:16;6.00;99.90
21184;DHT22;18176;49.502;11.754;2024-03-25T18:44:33;5.90;99.90
21184;DHT22;18176;49.502;11.754;2024-03-25T18:48:53;5.70;99.90
21184;DHT22;18176;49.502;11.754;2024-03-25T18:53:10;5.60;99.90
21184;DHT22;18176;49.502;11.754;2024-03-25T18:57:27;5.40;99.90
21184;DHT22;18176;49.502;11.754;2024-03-25T19:01:43;5.20;99.90
21184;DHT22;18176;49.502;11.754;2024-03-25T19:06:03;5.10;99.90
21184;DHT22;18176;49.502;11.754;2024-03-25T19:10:23;5.00;99.90
21184;DHT22;18176;49.502;11.754;2024-03-25T19:14:40;4.80;99.90
21184;DHT22;18176;49.502;11.754;2024-03-25T19:18:57;4.70;99.90
21184;DHT22;18176;49.502;11.754;2024-03-25T19:27:33;4.40;99.90
21184;DHT22;18176;49.502;11.754;2024-03-25T19:31:50;4.20;99.90
21184;DHT22;18176;49.502;11.754;2024-03-25T19:36:08;4.20;99.90
21184;DHT22;18176;49.502;11.754;2024-03-25T19:40:27;4.00;99.90
21184;DHT22;18176;49.502;11.754;2024-03-25T19:44:45;4.00;99.90
21184;DHT22;18176;49.502;11.754;2024-03-25T19:49:02;3.80;99.90
21184;DHT22;18176;49.502;11.754;2024-03-25T19:53:19;3.70;99.90
21184;DHT22;18176;49.502;11.754;2024-03-25T19:57:39;3.70;99.90
21184;DHT22;18176;49.502;11.754;2024-03-25T20:01:56;3.60;99.90
21184;DHT22;18176;49.502;11.754;2024-03-25T20:06:12;3.50;99.90
21184;DHT22;18176;49.502;11.754;2024-03-25T20:10:30;3.40;99.90
21184;DHT22;18176;49.502;11.754;2024-03-25T20:14:49;3.30;99.90
21184;DHT22;18176;49.502;11.754;2024-03-25T20:19:06;3.10;99.90
21184;DHT22;18176;49.502;11.754;2024-03-25T20:23:23;3.00;99.90
21184;DHT22;18176;49.502;11.754;2024-03-25T20:27:42;2.90;99.90
21184;DHT22;18176;49.502;11.754;2024-03-25T20:32:02;2.80;99.90
21184;DHT22;18176;49.502;11.754;2024-03-25T20:36:20;2.70;99.90
21184;DHT22;18176;49.502;11.754;2024-03-25T20:40:37;2.60;99.90
21184;DHT22;18176;49.502;11.754;2024-03-25T20:44:54;2.50;99.90
21184;DHT22;18176;49.502;11.754;2024-03-25T20:49:13;2.50;99.90
21184;DHT22;18176;49.502;11.754;2024-03-25T20:53:30;2.40;99.90
21184;DHT22;18176;49.502;11.754;2024-03-25T20:57:47;2.30;99.90
21184;DHT22;18176;49.502;11.754;2024-03-25T21:02:04;2.30;99.90
21184;DHT22;18176;49.502;11.754;2024-03-25T21:06:24;2.20;99.90
21184;DHT22;18176;49.502;11.754;2024-03-25T21:10:40;2.10;99.90
21184;DHT22;18176;49.502;11.754;2024-03-25T21:14:57;2.00;99.90
21184;DHT22;18176;49.502;11.754;2024-03-25T21:19:14;1.80;99.90
21184;DHT22;18176;49.502;11.754;2024-03-25T21:23:34;1.70;99.90
21184;DHT22;18176;49.502;11.754;2024-03-25T21:27:51;1.60;99.90
21184;DHT22;18176;49.502;11.754;2024-03-25T21:36:25;1.50;99.90
21184;DHT22;18176;49.502;11.754;2024-03-25T21:40:44;1.50;99.90
21184;DHT22;18176;49.502;11.754;2024-03-25T21:45:01;1.40;99.90
21184;DHT22;18176;49.502;11.754;2024-03-25T21:49:18;1.30;99.90
21184;DHT22;18176;49.502;11.754;2024-03-25T21:53:35;1.30;99.90
21184;DHT22;18176;49.502;11.754;2024-03-25T21:57:54;1.20;99.90
21184;DHT22;18176;49.502;11.754;2024-03-25T22:02:11;1.10;99.90
21184;DHT22;18176;49.502;11.754;2024-03-25T22:06:28;1.00;99.90
21184;DHT22;18176;49.502;11.754;2024-03-25T22:10:45;0.90;99.90
21184;DHT22;18176;49.502;11.754;2024-03-25T22:15:05;1.00;99.90
21184;DHT22;18176;49.502;11.754;2024-03-25T22:19:23;0.80;99.90
21184;DHT22;18176;49.502;11.754;2024-03-25T22:23:39;0.80;99.90
21184;DHT22;18176;49.502;11.754;2024-03-25T22:27:56;0.70;99.90
21184;DHT22;18176;49.502;11.754;2024-03-25T22:32:16;0.60;99.90
21184;DHT22;18176;49.502;11.754;2024-03-25T22:36:33;0.60;99.90
